sensor_id;sensor_type;location;lat;lon;timestamp;temperature;humidity
28546;DHT22;15749;49.606;8.738;2023-04-03T00:01:48;12.70;90.50
28546;DHT22;15749;49.606;8.738;2023-04-03T00:04:17;12.70;90.90
28546;DHT22;15749;49.606;8.738;2023-04-03T00:06:46;12.70;90.60
28546;DHT22;15749;49.606;8.738;2023-04-03T00:09:15;12.70;90.60
28546;DHT22;15749;49.606;8.738;2023-04-03T00:11:45;12.70;90.50
28546;DHT22;15749;49.606;8.738;2023-04-03T00:14:14;12.70;90.40
28546;DHT22;15749;49.606;8.738;2023-04-03T00:16:45;12.70;90.40
28546;DHT22;15749;49.606;8.738;2023-04-03T00:19:14;12.70;90.30
28546;DHT22;15749;49.606;8.738;2023-04-03T00:21:43;12.70;90.70
28546;DHT22;15749;49.606;8.738;2023-04-03T00:24:13;12.70;90.30
28546;DHT22;15749;49.606;8.738;2023-04-03T00:26:42;12.60;90.20
28546;DHT22;15749;49.606;8.738;2023-04-03T00:29:11;12.60;90.20
28546;DHT22;15749;49.606;8.738;2023-04-03T00:31:40;12.60;90.20
28546;DHT22;15749;49.606;8.738;2023-04-03T00:34:11;12.60;90.20
28546;DHT22;15749;49.606;8.738;2023-04-03T00:36:40;12.60;90.10
28546;DHT22;15749;49.606;8.738;2023-04-03T00:39:09;12.60;90.10
28546;DHT22;15749;49.606;8.738;2023-04-03T00:41:38;12.50;90.10
28546;DHT22;15749;49.606;8.738;2023-04-03T00:47:49;12.50;90.20
28546;DHT22;15749;49.606;8.738;2023-04-03T00:50:20;12.50;90.20
28546;DHT22;15749;49.606;8.738;2023-04-03T00:52:51;12.50;90.10
28546;DHT22;15749;49.606;8.738;2023-04-03T00:55:20;12.50;90.20
28546;DHT22;15749;49.606;8.738;2023-04-03T00:57:50;12.50;90.30
28546;DHT22;15749;49.606;8.738;2023-04-03T01:00:24;12.50;90.60
28546;DHT22;15749;49.606;8.738;2023-04-03T01:02:56;12.50;90.30
28546;DHT22;15749;49.606;8.738;2023-04-03T01:05:27;12.50;90.20
28546;DHT22;15749;49.606;8.738;2023-04-03T01:07:58;12.40;90.20
28546;DHT22;15749;49.606;8.738;2023-04-03T01:10:28;12.40;90.20
28546;DHT22;15749;49.606;8.738;2023-04-03T01:13:01;12.40;90.50
28546;DHT22;15749;49.606;8.738;2023-04-03T01:15:30;12.40;90.20
28546;DHT22;15749;49.606;8.738;2023-04-03T01:18:03;12.40;90.20
28546;DHT22;15749;49.606;8.738;2023-04-03T01:23:59;12.40;90.20
28546;DHT22;15749;49.606;8.738;2023-04-03T01:26:35;12.40;90.00
28546;DHT22;15749;49.606;8.738;2023-04-03T01:29:04;12.40;90.00
28546;DHT22;15749;49.606;8.738;2023-04-03T01:31:45;12.40;90.00
28546;DHT22;15749;49.606;8.738;2023-04-03T01:34:22;12.30;89.80
28546;DHT22;15749;49.606;8.738;2023-04-03T01:36:52;12.30;89.90
28546;DHT22;15749;49.606;8.738;2023-04-03T01:39:25;12.30;89.80
28546;DHT22;15749;49.606;8.738;2023-04-03T01:41:54;12.30;90.20
28546;DHT22;15749;49.606;8.738;2023-04-03T01:44:31;12.40;89.80
28546;DHT22;15749;49.606;8.738;2023-04-03T01:47:01;12.30;90.20
28546;DHT22;15749;49.606;8.738;2023-04-03T01:49:31;12.30;89.70
28546;DHT22;15749;49.606;8.738;2023-04-03T01:52:00;12.20;89.80
28546;DHT22;15749;49.606;8.738;2023-04-03T01:54:29;12.20;89.80
28546;DHT22;15749;49.606;8.738;2023-04-03T01:56:58;12.20;89.70
28546;DHT22;15749;49.606;8.738;2023-04-03T01:59:27;12.20;89.80
28546;DHT22;15749;49.606;8.738;2023-04-03T02:01:57;12.20;89.80
28546;DHT22;15749;49.606;8.738;2023-04-03T02:04:27;12.20;89.80
28546;DHT22;15749;49.606;8.738;2023-04-03T02:06:56;12.20;89.60
28546;DHT22;15749;49.606;8.738;2023-04-03T02:09:25;12.20;89.60
28546;DHT22;15749;49.606;8.738;2023-04-03T02:11:55;12.20;89.60
28546;DHT22;15749;49.606;8.738;2023-04-03T02:14:24;12.00;89.50
28546;DHT22;15749;49.606;8.738;2023-04-03T02:16:55;12.10;89.60
28546;DHT22;15749;49.606;8.738;2023-04-03T02:19:24;12.20;90.10
28546;DHT22;15749;49.606;8.738;2023-04-03T02:21:54;12.10;89.40
28546;DHT22;15749;49.606;8.738;2023-04-03T02:24:23;12.10;89.40
28546;DHT22;15749;49.606;8.738;2023-04-03T02:26:52;12.10;89.40
28546;DHT22;15749;49.606;8.738;2023-04-03T02:29:22;12.10;89.40
28546;DHT22;15749;49.606;8.738;2023-04-03T02:31:51;12.10;89.50
28546;DHT22;15749;49.606;8.738;2023-04-03T02:34:22;12.10;89.50
28546;DHT22;15749;49.606;8.738;2023-04-03T02:36:53;12.10;89.50
28546;DHT22;15749;49.606;8.738;2023-04-03T02:39:22;12.10;89.50
28546;DHT22;15749;49.606;8.738;2023-04-03T02:41:51;12.10;89.50
28546;DHT22;15749;49.606;8.738;2023-04-03T02:44:24;12.00;89.40
28546;DHT22;15749;49.606;8.738;2023-04-03T02:46:53;12.10;89.40
28546;DHT22;15749;49.606;8.738;2023-04-03T02:49:23;12.00;89.30
28546;DHT22;15749;49.606;8.738;2023-04-03T02:51:53;12.00;89.30
28546;DHT22;15749;49.606;8.738;2023-04-03T02:54:23;12.00;89.30
28546;DHT22;15749;49.606;8.738;2023-04-03T02:56:58;12.00;89.20
28546;DHT22;15749;49.606;8.738;2023-04-03T02:59:27;12.10;89.10
28546;DHT22;15749;49.606;8.738;2023-04-03T03:01:56;11.90;89.00
28546;DHT22;15749;49.606;8.738;2023-04-03T03:04:26;11.90;89.00
28546;DHT22;15749;49.606;8.738;2023-04-03T03:06:58;11.90;88.90
28546;DHT22;15749;49.606;8.738;2023-04-03T03:09:29;11.90;88.80
28546;DHT22;15749;49.606;8.738;2023-04-03T03:11:58;11.90;88.80
28546;DHT22;15749;49.606;8.738;2023-04-03T03:14:30;11.90;88.60
28546;DHT22;15749;49.606;8.738;2023-04-03T03:16:59;11.80;88.60
28546;DHT22;15749;49.606;8.738;2023-04-03T03:19:28;11.90;88.50
28546;DHT22;15749;49.606;8.738;2023-04-03T03:21:58;11.90;88.50
28546;DHT22;15749;49.606;8.738;2023-04-03T03:24:27;11.80;88.30
28546;DHT22;15749;49.606;8.738;2023-04-03T03:26:56;11.80;88.40
28546;DHT22;15749;49.606;8.738;2023-04-03T03:29:25;11.80;88.40
28546;DHT22;15749;49.606;8.738;2023-04-03T03:31:55;11.80;88.40
28546;DHT22;15749;49.606;8.738;2023-04-03T03:34:24;11.70;88.40
28546;DHT22;15749;49.606;8.738;2023-04-03T03:36:53;11.80;88.50
28546;DHT22;15749;49.606;8.738;2023-04-03T03:39:24;11.70;88.60
28546;DHT22;15749;49.606;8.738;2023-04-03T03:41:53;11.70;88.60
28546;DHT22;15749;49.606;8.738;2023-04-03T03:44:22;11.70;88.60
28546;DHT22;15749;49.606;8.738;2023-04-03T03:46:53;11.70;88.50
28546;DHT22;15749;49.606;8.738;2023-04-03T03:49:22;11.70;89.20
28546;DHT22;15749;49.606;8.738;2023-04-03T03:51:51;11.60;88.10
28546;DHT22;15749;49.606;8.738;2023-04-03T03:54:20;11.70;88.10
28546;DHT22;15749;49.606;8.738;2023-04-03T03:56:52;11.60;88.20
28546;DHT22;15749;49.606;8.738;2023-04-03T03:59:24;11.60;88.40
28546;DHT22;15749;49.606;8.738;2023-04-03T04:01:53;11.60;88.40
28546;DHT22;15749;49.606;8.738;2023-04-03T04:04:25;11.60;88.50
28546;DHT22;15749;49.606;8.738;2023-04-03T04:06:55;11.50;88.40
28546;DHT22;15749;49.606;8.738;2023-04-03T04:09:24;11.50;88.40
28546;DHT22;15749;49.606;8.738;2023-04-03T04:11:54;11.50;88.20
28546;DHT22;15749;49.606;8.738;2023-04-03T04:14:26;11.50;88.40
28546;DHT22;15749;49.606;8.738;2023-04-03T04:16:59;11.50;88.30
28546;DHT22;15749;49.606;8.738;2023-04-03T04:19:30;11.50;88.40
28546;DHT22;15749;49.606;8.738;2023-04-03T04:21:59;11.40;88.40
28546;DHT22;15749;49.606;8.738;2023-04-03T04:24:32;11.40;88.40
28546;DHT22;15749;49.606;8.738;2023-04-03T04:27:05;11.40;88.30
28546;DHT22;15749;49.606;8.738;2023-04-03T04:29:34;11.40;88.40
28546;DHT22;15749;49.606;8.738;2023-04-03T04:32:06;11.40;88.30
28546;DHT22;15749;49.606;8.738;2023-04-03T04:34:36;11.30;88.40
28546;DHT22;15749;49.606;8.738;2023-04-03T04:37:05;11.30;88.40
28546;DHT22;15749;49.606;8.738;2023-04-03T04:39:37;11.40;88.40
28546;DHT22;15749;49.606;8.738;2023-04-03T04:42:08;11.30;88.30
28546;DHT22;15749;49.606;8.738;2023-04-03T04:44:44;11.30;88.40
28546;DHT22;15749;49.606;8.738;2023-04-03T04:47:14;11.30;89.10
28546;DHT22;15749;49.606;8.738;2023-04-03T04:49:44;11.20;89.00
28546;DHT22;15749;49.606;8.738;2023-04-03T04:52:15;11.20;88.30
28546;DHT22;15749;49.606;8.738;2023-04-03T04:54:45;11.20;88.40
28546;DHT22;15749;49.606;8.738;2023-04-03T04:57:16;11.20;88.30
28546;DHT22;15749;49.606;8.738;2023-04-03T04:59:46;11.20;88.40
28546;DHT22;15749;49.606;8.738;2023-04-03T05:02:15;11.20;88.40
28546;DHT22;15749;49.606;8.738;2023-04-03T05:04:45;11.20;88.40
28546;DHT22;15749;49.606;8.738;2023-04-03T05:07:20;11.20;88.40
28546;DHT22;15749;49.606;8.738;2023-04-03T05:09:49;11.20;88.40
28546;DHT22;15749;49.606;8.738;2023-04-03T05:12:20;11.20;88.40
28546;DHT22;15749;49.606;8.738;2023-04-03T05:14:55;11.20;88.50
28546;DHT22;15749;49.606;8.738;2023-04-03T05:17:26;11.10;88.20
28546;DHT22;15749;49.606;8.738;2023-04-03T05:19:56;11.10;88.20
28546;DHT22;15749;49.606;8.738;2023-04-03T05:22:27;11.10;88.20
28546;DHT22;15749;49.606;8.738;2023-04-03T05:25:02;11.10;88.20
28546;DHT22;15749;49.606;8.738;2023-04-03T05:27:33;11.10;88.40
28546;DHT22;15749;49.606;8.738;2023-04-03T05:30:03;11.10;88.40
28546;DHT22;15749;49.606;8.738;2023-04-03T05:32:34;11.00;88.20
28546;DHT22;15749;49.606;8.738;2023-04-03T05:35:15;11.00;88.20
28546;DHT22;15749;49.606;8.738;2023-04-03T05:37:46;11.00;88.20
28546;DHT22;15749;49.606;8.738;2023-04-03T05:40:16;11.00;88.10
28546;DHT22;15749;49.606;8.738;2023-04-03T05:42:50;11.00;88.10
28546;DHT22;15749;49.606;8.738;2023-04-03T05:45:23;11.00;88.40
28546;DHT22;15749;49.606;8.738;2023-04-03T05:47:52;11.00;88.40
28546;DHT22;15749;49.606;8.738;2023-04-03T05:50:25;10.90;88.30
28546;DHT22;15749;49.606;8.738;2023-04-03T05:52:56;10.90;88.40
28546;DHT22;15749;49.606;8.738;2023-04-03T05:55:29;10.90;88.60
28546;DHT22;15749;49.606;8.738;2023-04-03T05:57:59;10.90;88.40
28546;DHT22;15749;49.606;8.738;2023-04-03T06:00:28;10.90;88.50
28546;DHT22;15749;49.606;8.738;2023-04-03T06:03:01;10.90;88.40
28546;DHT22;15749;49.606;8.738;2023-04-03T06:05:31;10.90;88.60
28546;DHT22;15749;49.606;8.738;2023-04-03T06:08:00;10.90;88.50
28546;DHT22;15749;49.606;8.738;2023-04-03T06:10:31;10.90;88.60
28546;DHT22;15749;49.606;8.738;2023-04-03T06:13:04;10.90;88.60
28546;DHT22;15749;49.606;8.738;2023-04-03T06:15:33;10.90;88.60
28546;DHT22;15749;49.606;8.738;2023-04-03T06:18:02;10.90;88.30
28546;DHT22;15749;49.606;8.738;2023-04-03T06:20:32;10.90;88.30
28546;DHT22;15749;49.606;8.738;2023-04-03T06:23:01;10.90;89.10
28546;DHT22;15749;49.606;8.738;2023-04-03T06:25:30;10.80;88.40
28546;DHT22;15749;49.606;8.738;2023-04-03T06:28:01;10.80;88.60
28546;DHT22;15749;49.606;8.738;2023-04-03T06:30:31;10.90;88.70
28546;DHT22;15749;49.606;8.738;2023-04-03T06:33:00;10.80;88.90
28546;DHT22;15749;49.606;8.738;2023-04-03T06:35:30;10.80;88.80
28546;DHT22;15749;49.606;8.738;2023-04-03T06:37:59;10.80;89.00
28546;DHT22;15749;49.606;8.738;2023-04-03T06:40:28;10.80;89.20
28546;DHT22;15749;49.606;8.738;2023-04-03T06:42:57;10.80;89.50
28546;DHT22;15749;49.606;8.738;2023-04-03T06:45:26;10.80;90.00
28546;DHT22;15749;49.606;8.738;2023-04-03T06:47:56;10.80;90.50
28546;DHT22;15749;49.606;8.738;2023-04-03T06:50:25;10.90;90.40
28546;DHT22;15749;49.606;8.738;2023-04-03T06:52:54;10.90;90.60
28546;DHT22;15749;49.606;8.738;2023-04-03T06:55:24;10.90;90.80
28546;DHT22;15749;49.606;8.738;2023-04-03T06:57:53;10.90;91.00
28546;DHT22;15749;49.606;8.738;2023-04-03T07:00:22;11.00;91.20
28546;DHT22;15749;49.606;8.738;2023-04-03T07:02:52;11.00;91.40
28546;DHT22;15749;49.606;8.738;2023-04-03T07:05:22;11.00;91.50
28546;DHT22;15749;49.606;8.738;2023-04-03T07:07:52;11.10;91.60
28546;DHT22;15749;49.606;8.738;2023-04-03T07:10:21;11.20;91.80
28546;DHT22;15749;49.606;8.738;2023-04-03T07:12:50;11.20;92.00
28546;DHT22;15749;49.606;8.738;2023-04-03T07:15:20;11.30;92.10
28546;DHT22;15749;49.606;8.738;2023-04-03T07:17:49;11.30;92.50
28546;DHT22;15749;49.606;8.738;2023-04-03T07:20:18;11.40;92.30
28546;DHT22;15749;49.606;8.738;2023-04-03T07:22:48;11.50;92.40
28546;DHT22;15749;49.606;8.738;2023-04-03T07:25:18;11.50;92.40
28546;DHT22;15749;49.606;8.738;2023-04-03T07:27:47;11.60;92.70
28546;DHT22;15749;49.606;8.738;2023-04-03T07:30:16;11.70;92.80
28546;DHT22;15749;49.606;8.738;2023-04-03T07:32:46;11.80;93.00
28546;DHT22;15749;49.606;8.738;2023-04-03T07:35:15;11.90;93.10
28546;DHT22;15749;49.606;8.738;2023-04-03T07:37:44;11.90;93.50
28546;DHT22;15749;49.606;8.738;2023-04-03T07:40:15;12.00;93.70
28546;DHT22;15749;49.606;8.738;2023-04-03T07:42:46;12.10;93.30
28546;DHT22;15749;49.606;8.738;2023-04-03T07:45:15;12.20;93.70
28546;DHT22;15749;49.606;8.738;2023-04-03T07:47:44;12.30;93.80
28546;DHT22;15749;49.606;8.738;2023-04-03T07:50:14;12.30;94.00
28546;DHT22;15749;49.606;8.738;2023-04-03T07:52:43;12.40;94.00
28546;DHT22;15749;49.606;8.738;2023-04-03T07:55:13;12.50;94.10
28546;DHT22;15749;49.606;8.738;2023-04-03T07:57:43;12.60;94.30
28546;DHT22;15749;49.606;8.738;2023-04-03T08:00:13;12.70;94.30
28546;DHT22;15749;49.606;8.738;2023-04-03T08:02:44;12.80;94.20
28546;DHT22;15749;49.606;8.738;2023-04-03T08:05:18;12.90;94.20
28546;DHT22;15749;49.606;8.738;2023-04-03T08:07:48;12.90;94.10
28546;DHT22;15749;49.606;8.738;2023-04-03T08:10:18;13.00;94.20
28546;DHT22;15749;49.606;8.738;2023-04-03T08:12:47;13.10;93.90
28546;DHT22;15749;49.606;8.738;2023-04-03T08:15:17;13.10;94.30
28546;DHT22;15749;49.606;8.738;2023-04-03T08:17:46;13.20;94.20
28546;DHT22;15749;49.606;8.738;2023-04-03T08:20:15;13.30;93.80
28546;DHT22;15749;49.606;8.738;2023-04-03T08:22:47;13.30;93.70
28546;DHT22;15749;49.606;8.738;2023-04-03T08:25:17;13.40;93.80
28546;DHT22;15749;49.606;8.738;2023-04-03T08:27:46;13.40;93.70
28546;DHT22;15749;49.606;8.738;2023-04-03T08:30:15;13.40;93.60
28546;DHT22;15749;49.606;8.738;2023-04-03T08:32:45;13.50;93.50
28546;DHT22;15749;49.606;8.738;2023-04-03T08:35:14;13.50;93.90
28546;DHT22;15749;49.606;8.738;2023-04-03T08:37:43;13.60;93.60
28546;DHT22;15749;49.606;8.738;2023-04-03T08:40:14;13.60;93.70
28546;DHT22;15749;49.606;8.738;2023-04-03T08:42:57;13.60;92.90
28546;DHT22;15749;49.606;8.738;2023-04-03T08:45:42;13.60;92.50
28546;DHT22;15749;49.606;8.738;2023-04-03T08:48:17;13.60;92.40
28546;DHT22;15749;49.606;8.738;2023-04-03T08:50:52;13.70;92.80
28546;DHT22;15749;49.606;8.738;2023-04-03T08:53:26;13.70;92.30
28546;DHT22;15749;49.606;8.738;2023-04-03T08:56:00;13.70;92.30
28546;DHT22;15749;49.606;8.738;2023-04-03T08:58:41;13.70;93.00
28546;DHT22;15749;49.606;8.738;2023-04-03T09:01:19;13.80;92.10
28546;DHT22;15749;49.606;8.738;2023-04-03T09:03:49;13.80;92.20
28546;DHT22;15749;49.606;8.738;2023-04-03T09:06:21;13.80;92.50
28546;DHT22;15749;49.606;8.738;2023-04-03T09:08:56;13.80;92.40
28546;DHT22;15749;49.606;8.738;2023-04-03T09:11:40;13.80;92.00
28546;DHT22;15749;49.606;8.738;2023-04-03T09:14:22;13.70;91.60
28546;DHT22;15749;49.606;8.738;2023-04-03T09:16:59;13.80;91.50
28546;DHT22;15749;49.606;8.738;2023-04-03T09:19:38;13.80;92.00
28546;DHT22;15749;49.606;8.738;2023-04-03T09:22:16;13.80;91.60
28546;DHT22;15749;49.606;8.738;2023-04-03T09:24:52;13.80;91.70
28546;DHT22;15749;49.606;8.738;2023-04-03T09:27:24;13.80;91.80
28546;DHT22;15749;49.606;8.738;2023-04-03T09:29:56;13.80;92.00
28546;DHT22;15749;49.606;8.738;2023-04-03T09:32:28;13.70;91.50
28546;DHT22;15749;49.606;8.738;2023-04-03T09:35:01;13.70;91.80
28546;DHT22;15749;49.606;8.738;2023-04-03T09:37:48;13.70;91.70
28546;DHT22;15749;49.606;8.738;2023-04-03T09:40:31;13.80;91.90
28546;DHT22;15749;49.606;8.738;2023-04-03T09:43:25;13.70;90.80
28546;DHT22;15749;49.606;8.738;2023-04-03T09:46:17;13.70;91.00
28546;DHT22;15749;49.606;8.738;2023-04-03T09:48:56;13.80;91.10
28546;DHT22;15749;49.606;8.738;2023-04-03T09:51:36;13.80;91.80
28546;DHT22;15749;49.606;8.738;2023-04-03T09:54:30;13.80;92.30
28546;DHT22;15749;49.606;8.738;2023-04-03T09:57:04;13.80;91.10
28546;DHT22;15749;49.606;8.738;2023-04-03T09:59:40;13.80;92.10
28546;DHT22;15749;49.606;8.738;2023-04-03T10:02:28;13.80;92.10
28546;DHT22;15749;49.606;8.738;2023-04-03T10:05:01;13.80;91.10
28546;DHT22;15749;49.606;8.738;2023-04-03T10:07:37;13.80;92.40
28546;DHT22;15749;49.606;8.738;2023-04-03T10:10:19;13.80;92.10
28546;DHT22;15749;49.606;8.738;2023-04-03T10:13:05;13.90;92.30
28546;DHT22;15749;49.606;8.738;2023-04-03T10:15:41;13.80;91.30
28546;DHT22;15749;49.606;8.738;2023-04-03T10:18:29;13.90;92.40
28546;DHT22;15749;49.606;8.738;2023-04-03T10:21:06;13.90;91.90
28546;DHT22;15749;49.606;8.738;2023-04-03T10:24:05;14.00;92.60
28546;DHT22;15749;49.606;8.738;2023-04-03T10:26:45;14.10;92.40
28546;DHT22;15749;49.606;8.738;2023-04-03T10:29:36;14.10;91.70
28546;DHT22;15749;49.606;8.738;2023-04-03T10:35:30;14.10;91.70
28546;DHT22;15749;49.606;8.738;2023-04-03T10:38:15;14.20;92.50
28546;DHT22;15749;49.606;8.738;2023-04-03T10:40:52;14.30;91.90
28546;DHT22;15749;49.606;8.738;2023-04-03T10:43:31;14.30;92.50
28546;DHT22;15749;49.606;8.738;2023-04-03T10:46:04;14.40;92.50
